LiveATC.Net - Listen to live air traffic control over the Internet!

Find LiveATC Audio Streams


Airport/ARTCC Code

Frequency
(e.g., 124.400, 128.75)
Site-wide search

Browse LiveATC Feeds
LiveATC Coverage Map
Top 50 LiveATC Feeds
Bad Weather Areas

LiveATC FAQ
Offer a LiveATC Feed
Contact LiveATC.net
Press Inquiries

LiveATC on iPhone
LiveATC on Android

Windows Phone
Windows 8/10

LiveATC Mobile
(Mobile browser)

ATC Audio Archives
Interesting Recordings

LiveATC Forums

Home Page
About LiveATC.net
Make a Donation
LiveATC Store

Terms of Use
Privacy Policy

Canadian Air Freqs

AIRMETs/SIGMETs

FAA Airport Status
Nat'l Airspace Status
Arrival Demand Charts


Server Software By:
Icecast.org
Liquidsoap


Current Potentially Bad Weather Airports
(updated every 30 minutes - sorted alphabetically by ICAO code)



This page lists LiveATC.net airport areas that may be interesting to listen to because of challenging flying (weather) conditions. Challenging weather conditions include low ceilings, limited visibility, high or gusty winds, or thunderstorms.

Updated: Tue Aug 30 07:10:01 UTC 2016
Click on airport name to go to that airport area's feeds.

CYTZ TowerToronto Island Airport
cytzNearest METAR:
CYTZ 300653Z AUTO VRB02KT 5SM HZ CLR 20/17 A3016 RMK RVR MISG SLP215 DENSITY ALT 600FT
CYYC Twr/App/CenterCalgary International Airport
WX MAP UNAVAILABLENearest METAR:
CYYC 300600Z CCA 15009G18KT 15SM FEW120 16/10 A3014 RMK AC1 AC TR LTGIC NE-SE SLP214 DENSITY ALT 4200FT
CYYT Gnd/Twr/Gander CenterSt. John's International Airport
WX MAP UNAVAILABLENearest METAR:
CYYT 300622Z 18020G31KT 3SM -RA BR OVC004 14/13 A2945 RMK SF8 PRESFR SLP973 DENSITY ALT 900FT
FMEP InfoPierrefonds Airport
WX MAP UNAVAILABLENearest METAR:
FMEP 300630Z AUTO 12025KT 9999 NSC 23/14 Q1026 BECMG 13025G35KT
KARB Gnd/TwrAnn Arbor Municipal Airport
karbNearest METAR:
KARB 300653Z AUTO 00000KT 1/4SM FG VV002 16/16 A3020 RMK AO2 SLP222 T01610161
KDSM Gnd/Twr/AppDes Moines International Airport
kdsmNearest METAR:
KDSM 300654Z 33005KT 10SM SCT120 BKN140 BKN250 23/21 A3016 RMK AO2 RAB15E54 SLP204 FRQ LTGIC DSNT E-SE CB DSNT E-SE MOV NE P0000 T02280211 $
KFCM TowerFlying Cloud Airport
kfcmNearest METAR:
KFCM 300653Z AUTO 12007KT 4SM -TSRA BR FEW014 BKN070 OVC090 21/18 A3022 RMK AO2 LTG DSNT E AND SW TSB40 SLP230 P0009 T02060183
KFKA CTAFFillmore County Airport
kfkaNearest METAR:
KFKA 300654Z AUTO 00000KT 1/4SM FG OVC001 21/20 A3021 RMK AO2 T02080200
KHXD Ground/TowerHilton Head Airport
khxdNearest METAR:
KHXD 300655Z AUTO 34006KT 10SM TS SCT024 SCT029 27/25 A3002 RMK AO2 LTG DSNT NE AND E
KISM Del/Gnd/TwrKissimmee Gateway Airport
kismNearest METAR:
KISM 300656Z 09006KT 10SM OVC009 24/24 A2994 RMK AO2 SLP140 T02440239
KIXD ASOS/ATISNew Century AirCenter Airport
kixdNearest METAR:
KIXD 300655Z AUTO 07006KT 3SM TS BR BKN030 OVC110 21/20 A3018 RMK AO2 LTG DSNT NE-SE P0004 T02060200
KLVN/KSYN/KSGS CTAFAirlake Airport
klvnNearest METAR:
KLVN 300652Z AUTO 01007KT 10SM BKN049 BKN055 OVC070 20/19 A3022 RMK AO2 LTG DSNT ALQDS
KLVN/KSYN/KSGS CTAFAirlake Airport
ksgsNearest METAR:
KSGS 300651Z AUTO 16003KT 7SM -RA SCT027 SCT037 BKN060 21/19 A3021 RMK AO2 LTG DSNT E AND SW P0014 T02050192
KMCI Del/Gnd/Twr/AppKansas City International Airport
kmciNearest METAR:
KMCI 300653Z 02007KT 10SM FEW048 BKN130 23/21 A3017 RMK AO2 LTG DSNT ALQDS SLP203 T02280206
KMIC Tower/CTAFCrystal Airport
kmicNearest METAR:
KMIC 300653Z AUTO 12011KT 5SM RA BKN075 OVC090 21/17 A3016 RMK AO2 LTG DSNT SE-SW TSE0558 SLP207 P0013 T02060172
KMKC Gnd/Twr/AppCharles B. Wheeler Downtown Airport
kmkcNearest METAR:
KMKC 300654Z 20005KT 10SM VCTS -RA FEW025 BKN070 OVC110 25/23 A3016 RMK AO2 LTG DSNT SE-SW RAB37 SLP203 P0001 T02500228
KMLI Del/Gnd/Twr/AppQuad City International Airport
kmliNearest METAR:
KMLI 300652Z 00000KT 7SM TS SCT041 22/21 A3016 RMK AO2 LTG DSNT E-S TSB28 SLP208 T02220211
KMSP Minneapolis AppMinneapolis-St Paul International/Wold-Chamberlain Airport
kmspNearest METAR:
KMSP 300653Z 11009KT 10SM VCTS -RA FEW049 BKN090CB OVC110 21/19 A3022 RMK AO2 WSHFT 0602 LTG DSNT E AND SW TSE28 SLP228 OCNL LTGICCG E-W VCTS E-W MOV S P0025 T02110189
KOJC Gnd/Twr/App/ZKCJohnson County Executive Airport
kojcNearest METAR:
KOJC 300653Z AUTO 17010G21KT 1 1/2SM +TSRA BR OVC037 21/19 A3019 RMK AO2 LTG DSNT ALQDS RAB04 TSB07 SLP212 P0049 T02110194
KOTM Del/Twr/App/CenterOttumwa Regional Airport
kotmNearest METAR:
KOTM 300653Z AUTO 00000KT 10SM TS BKN028 OVC065 21/19 A3019 RMK AO2 LTG DSNT N AND NW TSB34 SLP216 T02060189
KRST Gnd/Twr/AppRochester International Airport
krstNearest METAR:
KRST 300654Z AUTO 00000KT 1/2SM R31/2000V2800FT FG VV001 19/19 A3021 RMK AO2 RAB43E53 SLP223 P0000 T01940194
LFMN ApproachNice Cote d'Azur Airport
WX MAP UNAVAILABLENearest METAR:
LFMN 300630Z 33008KT 9999 SCT016 FEW026CB SCT033 BKN130 24/21 Q1016 RETS TEMPO 5000 TSRA
MHTG Gnd/Twr/App/Ctr/OpsToncontin International Airport
WX MAP UNAVAILABLENearest METAR:
MHTG 300700Z 00000KT 6000 -RA FEW006 SCT020 OVC00080 20/20 Q1019 A3009 NOSIGG
PASC CTAF/Unicom/AFIS/AppDeadhorse Airport
WX MAP UNAVAILABLENearest METAR:
PASC 300653Z 08019KT 10SM OVC004 03/02 A3056 RMK AO2 PK WND 08026/0651 SLP349 T00330022
Matsu CTAFPalmer Municipal Airport
paaqNearest METAR:
PAAQ 300653Z AUTO 03020G34KT 10SM CLR 18/M01 A3002 RMK AO2 PK WND 04036/0624 SLP166 T01831011 TSNO $
Matsu CTAFPalmer Municipal Airport
pawsNearest METAR:
PAWS 300656Z 07022G31KT 10SM CLR A3003 RMK AO1
SBFI Twr/App/Ctr/MiscFoz do Iguacu International Airport
WX MAP UNAVAILABLENearest METAR:
SBFI 300600Z 31005KT 9999 OVC007 14/14 Q1015
SGAS Gnd/Twr/AppSilvio Pettirossi International Airport
WX MAP UNAVAILABLENearest METAR:
SGAS 300600Z 25006KT 210V280 6000 -DZ OVC006 13/12 Q1016
WBKK Gnd/Twr/AppKota Kinabalu International Airport
WX MAP UNAVAILABLENearest METAR:
WBKK 300630Z 32010G25KT 5000 TSRA FEW013 FEW016CB SCT035 BKN135 24/23 Q1009 TEMPO 32010G25KT 4000 TSRA
YMML/YMMB/YMENEssendon Airport
WX MAP UNAVAILABLENearest METAR:
YMML 300630Z 01017KT 9999 BKN022 BKN045 13/09 Q1015 TEMPO 0700/0930 5000 RA SCT015 BKN030 FM0630 MOD/SEV TURB BLW 5000FT